Time;durP1;ratioP1;P1;durP2;ratioP2;P2;SDS_P1;SDS_P2;PMS_P1;PMS_P2;Temp;Humidity;BMP_temperature;BMP_pressure;BME280_temperature;BME280_humidity;BME280_pressure;Samples;Min_cycle;Max_cycle;Signal;HPM_P1;HPM_P2
2022/07/04 00:00:16;;;;;;;0.00;0.00;;;10.90;99.90;;;;;;5035089;28;20045;-82
2022/07/04 00:02:43;;;;;;;0.20;0.20;;;11.00;99.90;;;;;;5035216;28;20047;-82
2022/07/04 00:05:10;;;;;;;0.20;0.20;;;10.90;99.90;;;;;;5019151;28;20045;-82
2022/07/04 00:07:40;;;;;;;0.00;0.00;;;10.90;99.90;;;;;;5036330;28;20037;-82
2022/07/04 00:10:08;;;;;;;0.00;0.00;;;10.90;99.90;;;;;;5019588;28;20040;-82
2022/07/04 00:12:34;;;;;;;0.10;0.10;;;10.90;99.90;;;;;;5018099;28;20154;-82
2022/07/04 00:15:01;;;;;;;0.20;0.17;;;10.90;99.90;;;;;;5037673;28;20040;-82
2022/07/04 00:17:27;;;;;;;0.00;0.00;;;11.00;99.90;;;;;;5056011;28;20114;-82
2022/07/04 00:19:52;;;;;;;0.10;0.10;;;10.90;99.90;;;;;;5039398;28;20052;-82
2022/07/04 00:22:18;;;;;;;0.10;0.10;;;10.90;99.90;;;;;;5050300;28;20056;-82
2022/07/04 00:24:44;;;;;;;0.00;0.00;;;10.90;99.90;;;;;;5035517;28;20525;-81
2022/07/04 00:27:10;;;;;;;0.00;0.00;;;11.10;99.90;;;;;;5035959;28;20033;-81
2022/07/04 00:29:36;;;;;;;0.10;0.10;;;11.00;99.90;;;;;;5032263;28;20522;-81
2022/07/04 00:32:02;;;;;;;0.00;0.00;;;11.10;99.90;;;;;;5032835;28;20041;-81
2022/07/04 00:34:28;;;;;;;0.10;0.10;;;11.00;99.90;;;;;;5030648;28;20077;-81
2022/07/04 00:36:54;;;;;;;0.15;0.15;;;11.00;99.90;;;;;;5032499;28;20053;-81
2022/07/04 00:39:19;;;;;;;0.10;0.10;;;11.00;99.90;;;;;;5032083;28;20045;-81
2022/07/04 00:41:45;;;;;;;0.00;0.00;;;11.00;99.90;;;;;;5031588;28;20052;-82
2022/07/04 00:44:13;;;;;;;0.00;0.00;;;11.00;99.90;;;;;;5030110;28;20042;-82
2022/07/04 00:46:39;;;;;;;0.00;0.00;;;11.00;99.90;;;;;;5032657;28;20037;-82
2022/07/04 00:49:06;;;;;;;0.10;0.10;;;11.00;99.90;;;;;;5031853;28;20037;-82
2022/07/04 00:51:32;;;;;;;0.10;0.10;;;11.00;99.90;;;;;;5032167;28;20037;-82
2022/07/04 00:53:59;;;;;;;0.05;0.05;;;11.00;99.90;;;;;;5019519;28;20099;-82
2022/07/04 00:56:25;;;;;;;0.00;0.00;;;11.00;99.90;;;;;;5031676;28;20457;-82
2022/07/04 00:58:52;;;;;;;0.00;0.00;;;10.90;99.90;;;;;;5031719;28;20049;-82
2022/07/04 01:01:19;;;;;;;0.05;0.05;;;10.90;99.90;;;;;;5014288;28;20041;-82
2022/07/04 01:03:45;;;;;;;0.10;0.10;;;10.90;99.90;;;;;;4994821;28;20125;-82
2022/07/04 01:06:11;;;;;;;0.00;0.00;;;11.20;99.90;;;;;;5014698;28;20075;-82
2022/07/04 01:08:42;;;;;;;0.10;0.10;;;10.90;99.90;;;;;;5031858;28;20095;-82
2022/07/04 01:11:09;;;;;;;0.08;0.08;;;10.80;99.90;;;;;;5031944;28;20052;-82
2022/07/04 01:13:35;;;;;;;0.00;0.00;;;10.80;99.90;;;;;;5038437;28;20115;-81
2022/07/04 01:16:01;;;;;;;0.00;0.00;;;10.80;99.90;;;;;;5037016;28;20100;-81
2022/07/04 01:18:27;;;;;;;0.17;0.10;;;10.80;99.90;;;;;;5031761;28;20045;-81
2022/07/04 01:20:52;;;;;;;0.00;0.00;;;10.90;99.90;;;;;;5014917;28;20602;-81
2022/07/04 01:23:18;;;;;;;0.00;0.00;;;11.00;99.90;;;;;;5031846;28;20083;-81
2022/07/04 01:25:44;;;;;;;0.00;0.00;;;10.80;99.90;;;;;;5014470;28;20048;-81
2022/07/04 01:28:10;;;;;;;0.05;0.05;;;10.90;99.90;;;;;;5015485;28;20037;-82
2022/07/04 01:30:37;;;;;;;0.52;0.38;;;10.90;99.90;;;;;;5018869;28;20037;-86
2022/07/04 01:33:03;;;;;;;0.00;0.00;;;10.90;99.90;;;;;;5002305;28;20125;-86
2022/07/04 01:35:30;;;;;;;0.10;0.10;;;10.90;99.90;;;;;;5034733;28;20494;-86
2022/07/04 01:37:56;;;;;;;1.33;0.32;;;10.90;99.90;;;;;;5017757;28;20479;-86
2022/07/04 01:40:22;;;;;;;0.10;0.10;;;10.90;99.90;;;;;;5034706;28;20055;-86
2022/07/04 01:42:48;;;;;;;0.10;0.10;;;10.90;99.90;;;;;;5017484;28;20037;-86
2022/07/04 01:45:16;;;;;;;0.10;0.10;;;10.90;99.90;;;;;;5034385;28;20163;-86
2022/07/04 01:47:42;;;;;;;0.00;0.00;;;10.90;99.90;;;;;;5034282;28;20041;-85
2022/07/04 01:50:12;;;;;;;0.35;0.30;;;10.90;99.90;;;;;;5034504;28;20041;-85
2022/07/04 01:52:39;;;;;;;0.10;0.10;;;10.90;99.90;;;;;;5019567;28;20503;-85
2022/07/04 01:55:05;;;;;;;0.00;0.00;;;10.90;99.90;;;;;;5038942;28;20045;-85
2022/07/04 01:57:31;;;;;;;0.10;0.10;;;11.00;99.90;;;;;;5022049;28;20052;-85
2022/07/04 02:02:41;;;;;;;0.10;0.10;;;11.00;99.90;;;;;;5038556;28;20045;-85
2022/07/04 02:05:07;;;;;;;0.17;0.17;;;11.00;99.90;;;;;;5005572;28;20045;-85
2022/07/04 02:07:33;;;;;;;0.10;0.10;;;11.00;99.90;;;;;;5037831;28;20040;-85
2022/07/04 02:10:01;;;;;;;0.00;0.00;;;11.00;99.90;;;;;;5022025;28;20376;-85
2022/07/04 02:15:11;;;;;;;0.20;0.20;;;11.00;99.90;;;;;;5038306;28;20052;-85
2022/07/04 02:17:37;;;;;;;0.00;0.00;;;11.10;99.90;;;;;;5022196;28;20037;-85
2022/07/04 02:20:04;;;;;;;0.10;0.10;;;11.00;99.90;;;;;;5020550;28;20106;-86
2022/07/04 02:22:31;;;;;;;0.22;0.22;;;11.10;99.90;;;;;;5020090;28;20079;-86
2022/07/04 02:24:56;;;;;;;0.10;0.10;;;11.10;99.90;;;;;;5036205;28;20037;-85
2022/07/04 02:27:22;;;;;;;0.00;0.00;;;11.10;99.90;;;;;;5005896;28;20368;-86
2022/07/04 02:29:48;;;;;;;0.00;0.00;;;11.10;99.90;;;;;;5037664;28;20499;-86
2022/07/04 02:32:14;;;;;;;0.55;0.55;;;11.10;99.90;;;;;;5038308;28;20072;-85
2022/07/04 02:34:40;;;;;;;0.52;0.52;;;11.10;99.90;;;;;;5021797;28;20074;-86
2022/07/04 02:37:06;;;;;;;0.00;0.00;;;11.10;99.90;;;;;;5021828;28;20041;-85
2022/07/04 02:39:32;;;;;;;0.20;0.15;;;11.10;99.90;;;;;;5021291;28;20041;-85
2022/07/04 02:41:57;;;;;;;0.20;0.20;;;11.10;99.90;;;;;;5038150;28;20114;-85
2022/07/04 02:44:23;;;;;;;0.28;0.28;;;11.10;99.90;;;;;;5038136;28;20053;-85
2022/07/04 02:46:49;;;;;;;0.00;0.00;;;11.10;99.90;;;;;;5038202;28;20033;-85
2022/07/04 02:49:15;;;;;;;0.00;0.00;;;11.10;99.90;;;;;;5038134;28;20037;-85
2022/07/04 02:51:41;;;;;;;3.60;0.35;;;11.10;99.90;;;;;;5021325;28;20114;-85
2022/07/04 02:54:07;;;;;;;0.15;0.15;;;11.20;99.90;;;;;;5005560;28;20081;-82
2022/07/04 02:56:33;;;;;;;0.43;0.30;;;11.30;99.90;;;;;;5038078;28;20446;-82
2022/07/04 02:58:59;;;;;;;0.10;0.10;;;11.30;99.90;;;;;;5005170;28;20332;-82
2022/07/04 03:01:24;;;;;;;0.13;0.13;;;11.30;99.90;;;;;;5037618;28;20128;-82
2022/07/04 03:03:50;;;;;;;0.00;0.00;;;11.30;99.90;;;;;;5020748;28;20048;-82
2022/07/04 03:06:16;;;;;;;0.00;0.00;;;11.30;99.90;;;;;;5038080;28;20052;-82
2022/07/04 03:08:42;;;;;;;0.00;0.00;;;11.30;99.90;;;;;;5038405;28;20448;-82
2022/07/04 03:11:07;;;;;;;0.32;0.32;;;11.30;99.90;;;;;;5021081;28;20072;-85
2022/07/04 03:13:33;;;;;;;0.10;0.10;;;11.30;99.90;;;;;;5037049;28;20079;-85
2022/07/04 03:15:59;;;;;;;0.20;0.20;;;11.30;99.90;;;;;;5037537;28;20037;-85
2022/07/04 03:18:25;;;;;;;0.10;0.10;;;11.30;99.90;;;;;;5004753;28;20033;-85
2022/07/04 03:20:50;;;;;;;0.00;0.00;;;11.30;99.90;;;;;;5037853;28;20097;-85
2022/07/04 03:23:16;;;;;;;0.00;0.00;;;11.30;99.90;;;;;;5004711;28;20047;-85
2022/07/04 03:25:43;;;;;;;0.00;0.00;;;11.20;99.90;;;;;;5037217;28;20051;-85
2022/07/04 03:28:08;;;;;;;0.00;0.00;;;11.20;99.90;;;;;;5020782;28;20037;-85
2022/07/04 03:30:35;;;;;;;0.00;0.00;;;11.20;99.90;;;;;;5037449;28;20091;-86
2022/07/04 03:33:01;;;;;;;0.47;0.30;;;11.20;99.90;;;;;;5036576;28;20040;-86
2022/07/04 03:35:27;;;;;;;0.00;0.00;;;11.30;99.90;;;;;;5020686;28;20040;-86
2022/07/04 03:37:53;;;;;;;0.38;0.38;;;11.50;99.90;;;;;;5021022;28;20040;-85
2022/07/04 03:40:20;;;;;;;0.75;0.75;;;11.50;99.90;;;;;;5017746;28;20041;-86
2022/07/04 03:42:46;;;;;;;0.05;0.05;;;11.60;99.90;;;;;;5017259;28;20051;-85
2022/07/04 03:45:12;;;;;;;0.10;0.10;;;11.60;99.90;;;;;;5000734;28;20133;-86
2022/07/04 03:47:37;;;;;;;0.20;0.20;;;11.60;99.90;;;;;;5021875;28;20095;-86
2022/07/04 03:50:04;;;;;;;0.20;0.20;;;11.70;99.90;;;;;;5036868;28;20037;-86
2022/07/04 03:52:30;;;;;;;0.55;0.20;;;11.70;99.90;;;;;;5037243;28;20037;-85
2022/07/04 03:54:56;;;;;;;0.10;0.10;;;11.70;99.90;;;;;;5036335;28;20576;-86
2022/07/04 03:57:21;;;;;;;0.00;0.00;;;11.70;99.90;;;;;;5038488;28;20041;-86
2022/07/04 03:59:47;;;;;;;0.00;0.00;;;12.40;99.90;;;;;;5008973;28;20041;-86
2022/07/04 04:02:13;;;;;;;0.03;0.03;;;11.80;99.90;;;;;;5040122;28;20041;-86
2022/07/04 04:07:23;;;;;;;0.10;0.10;;;11.80;99.90;;;;;;5036652;28;20049;-86
2022/07/04 04:09:48;;;;;;;0.00;0.00;;;11.90;99.90;;;;;;5020110;28;20094;-86
2022/07/04 04:12:14;;;;;;;0.10;0.10;;;12.00;99.90;;;;;;5035799;28;20073;-86
2022/07/04 04:14:40;;;;;;;0.00;0.00;;;12.00;99.90;;;;;;5036280;28;20202;-86
2022/07/04 04:17:06;;;;;;;0.10;0.10;;;12.10;99.90;;;;;;5020209;28;20394;-82
2022/07/04 04:19:31;;;;;;;0.10;0.10;;;12.30;99.90;;;;;;5019773;28;20509;-82
2022/07/04 04:21:57;;;;;;;0.00;0.00;;;12.30;99.90;;;;;;5036385;28;20041;-82
2022/07/04 04:24:23;;;;;;;0.10;0.10;;;12.40;99.90;;;;;;5003260;28;20052;-82
2022/07/04 04:26:49;;;;;;;0.10;0.10;;;12.50;99.90;;;;;;5036456;28;20083;-82
2022/07/04 04:29:15;;;;;;;0.00;0.00;;;12.60;99.90;;;;;;5036142;28;20044;-82
2022/07/04 04:31:42;;;;;;;0.20;0.20;;;12.70;99.90;;;;;;5036268;28;20398;-82
2022/07/04 04:34:07;;;;;;;0.17;0.17;;;12.80;99.90;;;;;;5036095;28;20033;-85
2022/07/04 04:36:33;;;;;;;0.08;0.08;;;12.90;99.90;;;;;;5019262;28;20103;-85
2022/07/04 04:38:59;;;;;;;0.00;0.00;;;13.00;99.90;;;;;;5035668;28;20495;-85
2022/07/04 04:41:25;;;;;;;0.20;0.20;;;13.00;99.90;;;;;;5019767;28;20051;-86
2022/07/04 04:43:51;;;;;;;0.35;0.35;;;13.10;99.90;;;;;;5034244;22;20049;-86
2022/07/04 04:46:16;;;;;;;0.17;0.17;;;13.10;99.90;;;;;;5039319;28;20083;-86
2022/07/04 04:48:42;;;;;;;0.10;0.10;;;13.20;99.90;;;;;;5056143;28;20378;-86
2022/07/04 04:51:08;;;;;;;0.40;0.30;;;13.60;99.90;;;;;;5038706;28;20120;-84
2022/07/04 04:53:34;;;;;;;0.10;0.10;;;13.20;99.90;;;;;;5055599;28;20105;-84
2022/07/04 04:55:59;;;;;;;0.10;0.10;;;13.30;99.90;;;;;;5039201;28;20032;-84
2022/07/04 04:58:25;;;;;;;0.00;0.00;;;13.40;99.90;;;;;;5039288;28;20040;-85
2022/07/04 05:00:51;;;;;;;0.32;0.32;;;13.50;99.90;;;;;;5021712;28;20375;-84
2022/07/04 05:03:17;;;;;;;1.25;1.15;;;13.60;99.90;;;;;;5022739;28;20037;-84
2022/07/04 05:05:44;;;;;;;0.00;0.00;;;13.70;99.90;;;;;;5038797;28;20475;-84
2022/07/04 05:08:10;;;;;;;0.10;0.10;;;;;;;;;;5055777;28;20037;-81
2022/07/04 05:10:35;;;;;;;0.65;0.40;;;13.90;99.90;;;;;;5055017;28;20043;-82
2022/07/04 05:13:03;;;;;;;0.10;0.10;;;14.20;99.90;;;;;;5049392;28;20036;-82
2022/07/04 05:15:29;;;;;;;0.20;0.20;;;14.10;99.90;;;;;;5055749;28;20429;-82
2022/07/04 05:17:54;;;;;;;0.10;0.10;;;14.40;99.90;;;;;;5072568;28;20106;-82
2022/07/04 05:20:20;;;;;;;0.13;0.13;;;14.50;99.90;;;;;;5055203;28;20491;-82
2022/07/04 05:22:46;;;;;;;0.03;0.03;;;14.60;99.90;;;;;;5038622;28;20048;-84
2022/07/04 05:25:11;;;;;;;0.20;0.20;;;14.70;99.90;;;;;;5038945;28;20040;-85
2022/07/04 05:27:37;;;;;;;0.20;0.20;;;14.80;99.90;;;;;;5022269;28;20047;-85
2022/07/04 05:30:04;;;;;;;0.13;0.13;;;15.10;99.90;;;;;;5038339;28;20086;-85
2022/07/04 05:32:30;;;;;;;0.17;0.17;;;15.80;99.90;;;;;;5051734;28;20486;-84
2022/07/04 05:34:56;;;;;;;0.10;0.10;;;17.70;99.90;;;;;;5052180;28;20044;-84
2022/07/04 05:37:25;;;;;;;0.08;0.08;;;;;;;;;;5006318;28;20051;-84
2022/07/04 05:39:51;;;;;;;0.10;0.10;;;19.60;99.90;;;;;;5055608;28;20180;-82
2022/07/04 05:42:17;;;;;;;0.10;0.10;;;20.10;99.90;;;;;;5053074;28;20044;-82
2022/07/04 05:44:43;;;;;;;0.00;0.00;;;20.90;99.90;;;;;;5052584;28;20068;-82
2022/07/04 05:47:09;;;;;;;0.30;0.30;;;21.70;99.90;;;;;;5038314;28;20080;-82
2022/07/04 05:49:35;;;;;;;0.20;0.20;;;;;;;;;;5052427;28;20085;-82
2022/07/04 05:52:01;;;;;;;0.25;0.25;;;22.10;99.90;;;;;;5053036;28;20036;-82
2022/07/04 05:54:27;;;;;;;0.10;0.10;;;22.40;99.90;;;;;;5016672;28;20537;-82
2022/07/04 05:56:53;;;;;;;0.20;0.20;;;22.70;99.90;;;;;;5032307;28;20485;-84
2022/07/04 05:59:19;;;;;;;0.98;0.40;;;22.80;99.90;;;;;;5052871;28;20083;-84
2022/07/04 06:01:45;;;;;;;3.55;0.32;;;23.10;99.90;;;;;;5053906;28;20401;-84
2022/07/04 06:04:10;;;;;;;0.10;0.10;;;23.60;99.90;;;;;;5054694;28;20078;-84
2022/07/04 06:06:36;;;;;;;0.10;0.10;;;24.00;99.90;;;;;;5055789;28;20517;-84
2022/07/04 06:09:03;;;;;;;0.10;0.10;;;24.10;99.90;;;;;;5038088;28;20040;-84
2022/07/04 06:11:28;;;;;;;0.10;0.10;;;24.30;99.90;;;;;;5054823;28;20040;-84
2022/07/04 06:13:55;;;;;;;0.20;0.20;;;24.60;99.90;;;;;;5047077;28;20063;-82
2022/07/04 06:16:20;;;;;;;0.25;0.22;;;24.90;99.90;;;;;;5051533;28;20467;-82
2022/07/04 06:18:46;;;;;;;0.10;0.10;;;25.10;99.90;;;;;;5052050;28;20044;-82
2022/07/04 06:21:12;;;;;;;0.10;0.10;;;24.80;99.90;;;;;;5035642;28;20060;-82
2022/07/04 06:23:38;;;;;;;0.10;0.10;;;24.50;99.90;;;;;;5047403;28;20086;-82
2022/07/04 06:26:07;;;;;;;0.22;0.22;;;24.10;99.90;;;;;;5053355;28;20036;-82
2022/07/04 06:28:32;;;;;;;0.30;0.30;;;23.90;99.90;;;;;;5054685;28;20040;-82
2022/07/04 06:30:58;;;;;;;0.10;0.10;;;24.30;99.90;;;;;;5035387;28;20564;-82
2022/07/04 06:33:24;;;;;;;0.20;0.20;;;25.00;99.90;;;;;;5047179;28;20051;-82
2022/07/04 06:35:54;;;;;;;0.10;0.10;;;25.90;99.90;;;;;;5041562;28;20528;-82
2022/07/04 06:38:30;;;;;;;0.00;0.00;;;26.10;99.90;;;;;;5043584;28;20059;-82
2022/07/04 06:40:58;;;;;;;0.10;0.10;;;25.20;99.90;;;;;;5036814;28;20036;-82
2022/07/04 06:43:24;;;;;;;0.52;0.52;;;23.50;99.90;;;;;;5037150;28;20405;-82
2022/07/04 06:45:51;;;;;;;0.22;0.22;;;22.70;99.90;;;;;;5048381;28;20051;-82
2022/07/04 06:48:17;;;;;;;0.73;0.45;;;21.90;99.90;;;;;;5057559;28;20043;-85
2022/07/04 06:50:43;;;;;;;0.10;0.10;;;21.30;99.90;;;;;;5057337;28;20149;-86
2022/07/04 06:53:10;;;;;;;0.15;0.15;;;20.80;99.90;;;;;;5058120;28;20436;-86
2022/07/04 06:55:40;;;;;;;0.25;0.25;;;20.50;99.90;;;;;;5041196;28;20044;-86
2022/07/04 06:58:08;;;;;;;0.10;0.10;;;20.50;99.90;;;;;;5077688;28;20389;-86
2022/07/04 07:00:34;;;;;;;0.10;0.10;;;20.80;99.90;;;;;;5055356;28;20040;-86
2022/07/04 07:03:01;;;;;;;0.10;0.10;;;21.20;99.90;;;;;;5058217;28;20128;-86
2022/07/04 07:05:27;;;;;;;1.35;0.90;;;21.20;99.90;;;;;;5041035;28;20409;-86
2022/07/04 07:07:54;;;;;;;0.65;0.43;;;21.00;99.90;;;;;;5040573;28;20079;-86
2022/07/04 07:10:20;;;;;;;0.10;0.10;;;20.60;99.90;;;;;;5052069;28;20037;-86
2022/07/04 07:12:46;;;;;;;0.15;0.15;;;20.20;99.90;;;;;;5039522;28;20032;-86
2022/07/04 07:15:13;;;;;;;0.47;0.43;;;19.90;99.90;;;;;;5054600;28;20040;-86
2022/07/04 07:17:41;;;;;;;0.10;0.10;;;19.50;99.90;;;;;;5056909;28;20080;-86
2022/07/04 07:20:08;;;;;;;0.10;0.10;;;19.30;99.90;;;;;;5053666;28;20186;-82
2022/07/04 07:22:33;;;;;;;0.35;0.17;;;19.20;99.90;;;;;;5040947;28;20075;-82
2022/07/04 07:24:59;;;;;;;0.10;0.10;;;19.10;99.90;;;;;;5044397;28;20071;-82
2022/07/04 07:27:25;;;;;;;0.95;0.65;;;19.00;99.90;;;;;;5051624;28;20143;-82
2022/07/04 07:29:51;;;;;;;0.00;0.00;;;18.80;99.90;;;;;;5051541;28;20085;-82
2022/07/04 07:32:17;;;;;;;0.10;0.10;;;19.20;99.90;;;;;;5052891;28;20033;-81
2022/07/04 07:34:43;;;;;;;0.17;0.17;;;19.30;99.90;;;;;;5039334;28;20044;-82
2022/07/04 07:37:09;;;;;;;0.10;0.10;;;19.20;99.90;;;;;;5040604;28;20478;-85
2022/07/04 07:39:35;;;;;;;0.10;0.10;;;19.20;99.90;;;;;;5040536;28;20504;-85
2022/07/04 07:42:01;;;;;;;0.10;0.10;;;19.20;99.90;;;;;;5044157;28;20044;-86
2022/07/04 07:44:27;;;;;;;0.47;0.45;;;19.30;99.90;;;;;;5052742;28;20140;-86
2022/07/04 07:46:52;;;;;;;0.10;0.10;;;19.40;99.90;;;;;;5038917;28;20047;-86
2022/07/04 07:49:18;;;;;;;0.13;0.13;;;19.50;99.90;;;;;;5032634;28;20040;-86
2022/07/04 07:51:44;;;;;;;0.20;0.20;;;19.60;99.90;;;;;;5044688;28;20127;-86
2022/07/04 07:54:10;;;;;;;0.00;0.00;;;20.20;99.90;;;;;;5036366;28;20037;-82
2022/07/04 07:56:36;;;;;;;0.05;0.05;;;20.40;99.90;;;;;;5034335;28;20035;-82
2022/07/04 07:59:01;;;;;;;0.10;0.10;;;20.40;99.90;;;;;;5043525;28;20418;-82
2022/07/04 08:01:27;;;;;;;0.08;0.08;;;20.30;99.90;;;;;;5039472;28;20080;-82
2022/07/04 08:06:37;;;;;;;0.20;0.20;;;22.40;99.90;;;;;;5049602;28;20037;-82
2022/07/04 08:09:03;;;;;;;0.10;0.10;;;24.00;99.90;;;;;;5044769;28;20035;-82
2022/07/04 08:11:29;;;;;;;0.20;0.20;;;25.00;99.90;;;;;;5046635;28;20032;-82
2022/07/04 08:13:55;;;;;;;0.13;0.13;;;25.70;99.80;;;;;;5039698;28;20046;-82
2022/07/04 08:16:21;;;;;;;0.10;0.10;;;26.80;98.20;;;;;;5054211;28;20087;-82
2022/07/04 08:18:47;;;;;;;0.52;0.20;;;28.20;98.10;;;;;;5039403;28;20115;-82
2022/07/04 08:21:13;;;;;;;0.10;0.10;;;29.50;95.20;;;;;;5039446;28;20512;-82
2022/07/04 08:23:40;;;;;;;0.15;0.15;;;30.20;94.20;;;;;;5050416;28;20548;-82
2022/07/04 08:26:06;;;;;;;0.47;0.25;;;30.30;91.10;;;;;;5054183;28;20111;-85
2022/07/04 08:28:32;;;;;;;0.10;0.10;;;30.70;91.80;;;;;;5039470;28;20074;-86
2022/07/04 08:30:58;;;;;;;0.43;0.43;;;31.10;90.40;;;;;;5055785;28;20052;-86
2022/07/04 08:33:24;;;;;;;0.00;0.00;;;30.70;90.30;;;;;;5055954;28;20070;-86
2022/07/04 08:35:50;;;;;;;0.10;0.10;;;29.50;90.20;;;;;;5055796;28;20124;-86
2022/07/04 08:38:17;;;;;;;0.22;0.22;;;28.10;90.20;;;;;;5056339;28;20079;-86
2022/07/04 08:40:43;;;;;;;1.17;0.35;;;26.90;90.90;;;;;;5039345;28;20032;-86
2022/07/04 08:43:13;;;;;;;0.10;0.10;;;25.90;92.30;;;;;;5056130;28;20052;-85
2022/07/04 08:45:40;;;;;;;0.35;0.35;;;25.00;92.60;;;;;;5039339;28;20051;-86
2022/07/04 08:48:08;;;;;;;0.13;0.13;;;24.20;93.90;;;;;;5055005;28;20071;-86
2022/07/04 08:50:56;;;;;;;0.10;0.10;;;23.80;94.80;;;;;;5038337;28;20123;-86
2022/07/04 08:53:26;;;;;;;0.10;0.10;;;24.20;94.90;;;;;;5055179;28;20037;-86
2022/07/04 08:58:38;;;;;;;0.20;0.20;;;24.90;94.50;;;;;;5048896;28;20036;-86
2022/07/04 09:01:07;;;;;;;0.63;0.28;;;26.80;94.00;;;;;;5051489;28;20041;-82
2022/07/04 09:03:33;;;;;;;0.20;0.20;;;27.40;92.20;;;;;;5049617;28;20075;-83
2022/07/04 09:05:59;;;;;;;0.10;0.10;;;27.60;90.90;;;;;;5054212;28;20115;-82
2022/07/04 09:08:25;;;;;;;0.90;0.57;;;27.10;90.80;;;;;;5052962;28;20178;-82
2022/07/04 09:10:52;;;;;;;0.03;0.03;;;26.30;90.70;;;;;;5055422;28;20059;-83
2022/07/04 09:13:18;;;;;;;0.10;0.10;;;25.60;91.60;;;;;;5029822;28;20032;-82
2022/07/04 09:15:46;;;;;;;0.10;0.10;;;24.90;92.10;;;;;;5054816;28;20135;-82
2022/07/04 09:18:38;;;;;;;0.10;0.10;;;24.30;93.00;;;;;;5055356;28;20485;-86
2022/07/04 09:21:07;;;;;;;0.20;0.20;;;23.70;93.70;;;;;;5036733;28;20052;-86
2022/07/04 09:23:35;;;;;;;0.60;0.43;;;23.40;94.80;;;;;;5047648;28;20049;-86
2022/07/04 09:26:16;;;;;;;0.10;0.10;;;22.90;93.60;;;;;;5050325;28;20051;-86
2022/07/04 09:28:52;;;;;;;0.03;0.03;;;23.00;94.50;;;;;;5068676;28;20048;-86
2022/07/04 09:31:22;;;;;;;0.10;0.10;;;;;;;;;;5053002;28;20040;-86
2022/07/04 09:33:54;;;;;;;0.73;0.32;;;22.70;94.10;;;;;;5047262;28;20102;-82
2022/07/04 09:36:23;;;;;;;0.10;0.10;;;22.30;94.90;;;;;;5052053;28;20044;-82
2022/07/04 09:39:12;;;;;;;0.22;0.22;;;23.30;95.00;;;;;;5049131;28;20489;-82
2022/07/04 09:41:57;;;;;;;0.00;0.00;;;25.70;94.00;;;;;;5052759;28;20037;-82
2022/07/04 09:44:34;;;;;;;0.10;0.10;;;27.70;92.00;;;;;;5035014;28;20045;-82
2022/07/04 09:47:27;;;;;;;0.10;0.10;;;29.20;90.90;;;;;;5065740;28;20033;-82
2022/07/04 09:50:12;;;;;;;1.67;0.85;;;30.30;88.80;;;;;;5050661;28;20037;-85
2022/07/04 09:52:51;;;;;;;0.30;0.30;;;31.30;83.00;;;;;;5055255;28;20045;-85
2022/07/04 09:55:27;;;;;;;0.20;0.20;;;32.10;80.90;;;;;;5054186;28;20429;-85
2022/07/04 09:57:55;;;;;;;0.73;0.73;;;32.00;78.50;;;;;;5035634;28;20033;-84
2022/07/04 10:00:27;;;;;;;0.10;0.10;;;30.00;76.20;;;;;;5030973;28;20565;-85
2022/07/04 10:02:54;;;;;;;0.22;0.20;;;27.90;78.40;;;;;;5053742;28;20041;-85
2022/07/04 10:05:25;;;;;;;0.38;0.38;;;27.70;80.40;;;;;;5030307;28;20037;-85
2022/07/04 10:07:53;;;;;;;0.13;0.13;;;28.40;80.80;;;;;;5038866;28;20048;-86
2022/07/04 10:10:39;;;;;;;0.10;0.10;;;29.60;81.30;;;;;;5053190;28;20386;-86
2022/07/04 10:13:10;;;;;;;0.20;0.20;;;30.50;78.80;;;;;;5053602;28;20133;-86
2022/07/04 10:15:38;;;;;;;0.10;0.10;;;31.40;78.80;;;;;;5058470;28;20071;-86
2022/07/04 10:18:06;;;;;;;0.15;0.15;;;31.30;77.40;;;;;;5041133;28;20048;-85
2022/07/04 10:20:31;;;;;;;0.10;0.10;;;30.30;75.60;;;;;;5053533;28;20036;-86
2022/07/04 10:22:59;;;;;;;0.10;0.10;;;30.60;77.90;;;;;;5053181;28;20044;-83
2022/07/04 10:25:25;;;;;;;0.45;0.45;;;31.10;75.60;;;;;;5048488;28;20051;-82
2022/07/04 10:27:51;;;;;;;0.10;0.10;;;31.30;72.70;;;;;;5038932;28;20390;-82
2022/07/04 10:30:37;;;;;;;0.28;0.28;;;31.40;72.50;;;;;;5056196;28;20044;-82
2022/07/04 10:33:03;;;;;;;;;;;31.10;73.50;;;;;;5052123;28;20060;-83
2022/07/04 10:35:55;;;;;;;0.32;0.15;;;29.70;71.50;;;;;;5056533;28;20321;-82
2022/07/04 10:38:23;;;;;;;0.10;0.10;;;29.40;73.00;;;;;;5056807;28;20074;-82
2022/07/04 10:40:53;;;;;;;0.10;0.10;;;30.20;74.10;;;;;;5055369;28;20045;-82
2022/07/04 10:43:33;;;;;;;0.10;0.10;;;30.30;71.40;;;;;;5045124;28;20502;-83
2022/07/04 10:46:05;;;;;;;0.10;0.10;;;30.30;72.10;;;;;;5061439;28;20037;-83
2022/07/04 10:48:32;;;;;;;0.10;0.10;;;30.00;70.50;;;;;;5057101;28;20440;-82
2022/07/04 10:51:04;;;;;;;0.10;0.10;;;30.20;71.70;;;;;;5057880;28;20394;-82
2022/07/04 10:53:32;;;;;;;0.10;0.10;;;30.50;72.30;;;;;;5057427;28;20045;-82
2022/07/04 10:56:18;;;;;;;0.30;0.30;;;29.50;70.50;;;;;;5058243;28;20097;-82
2022/07/04 10:58:44;;;;;;;2.55;2.05;;;28.90;72.80;;;;;;5038021;28;20546;-82
2022/07/04 11:01:15;;;;;;;0.13;0.10;;;29.20;73.80;;;;;;5040000;28;20049;-82
2022/07/04 11:03:49;;;;;;;0.10;0.10;;;28.90;72.40;;;;;;5037081;28;20051;-82
2022/07/04 11:06:32;;;;;;;0.20;0.20;;;29.30;72.90;;;;;;5057742;28;20086;-82
2022/07/04 11:09:23;;;;;;;0.00;0.00;;;29.40;70.30;;;;;;5053129;28;20110;-83
2022/07/04 11:12:01;;;;;;;0.00;0.00;;;29.90;70.40;;;;;;5052269;28;20074;-82
2022/07/04 11:14:31;;;;;;;0.10;0.10;;;30.30;69.20;;;;;;5059351;28;20063;-83
2022/07/04 11:16:57;;;;;;;0.15;0.15;;;30.70;69.60;;;;;;5047461;28;20405;-82
2022/07/04 11:19:23;;;;;;;0.10;0.10;;;30.90;68.30;;;;;;5040311;28;20824;-83
2022/07/04 11:21:49;;;;;;;0.30;0.30;;;30.80;67.90;;;;;;5053091;28;20068;-82
2022/07/04 11:24:15;;;;;;;0.17;0.17;;;31.00;69.00;;;;;;5037774;28;20121;-83
2022/07/04 11:26:40;;;;;;;0.10;0.10;;;31.20;69.60;;;;;;5032550;28;20025;-82
2022/07/04 11:29:06;;;;;;;0.10;0.10;;;30.50;68.10;;;;;;5036437;28;20037;-82
2022/07/04 11:31:41;;;;;;;0.28;0.28;;;30.40;68.70;;;;;;5068512;28;20033;-85
2022/07/04 11:34:07;;;;;;;4.73;0.53;;;30.20;67.80;;;;;;5033056;28;20043;-86
2022/07/04 11:36:33;;;;;;;0.10;0.10;;;30.00;69.20;;;;;;5040531;28;20375;-85
2022/07/04 11:39:07;;;;;;;0.10;0.10;;;30.20;69.70;;;;;;5040588;28;20131;-85
2022/07/04 11:47:21;;;;;;;0.20;0.15;;;29.80;68.80;;;;;;5054032;28;20150;-86
2022/07/04 11:49:57;;;;;;;0.20;0.20;;;29.30;70.80;;;;;;5048459;28;20033;-86
2022/07/04 11:52:27;;;;;;;0.17;0.17;;;29.40;71.30;;;;;;5035967;28;20083;-86
2022/07/04 11:54:53;;;;;;;0.10;0.10;;;29.90;72.00;;;;;;5029271;28;20068;-86
2022/07/04 11:57:23;;;;;;;0.38;0.38;;;30.00;69.70;;;;;;5044183;28;20076;-85
2022/07/04 12:00:04;;;;;;;0.00;0.00;;;29.30;68.90;;;;;;5034277;28;20045;-85
2022/07/04 12:02:32;;;;;;;0.00;0.00;;;28.90;70.50;;;;;;5050752;28;20076;-85
2022/07/04 12:04:59;;;;;;;0.22;0.22;;;28.40;71.80;;;;;;5052339;28;20044;-85
2022/07/04 12:07:27;;;;;;;0.03;0.03;;;28.80;72.00;;;;;;5035765;28;20079;-86
2022/07/04 12:09:54;;;;;;;0.00;0.00;;;29.10;69.60;;;;;;5051834;28;20556;-85
2022/07/04 12:12:21;;;;;;;0.55;0.55;;;29.10;68.50;;;;;;5033864;28;20053;-85
2022/07/04 12:15:19;;;;;;;0.28;0.28;;;29.20;69.60;;;;;;5052157;28;20044;-85
2022/07/04 12:17:48;;;;;;;0.10;0.10;;;29.00;68.20;;;;;;5000349;28;20059;-84
2022/07/04 12:20:19;;;;;;;0.82;0.82;;;28.40;68.10;;;;;;5052661;28;20048;-85
2022/07/04 12:22:59;;;;;;;0.05;0.05;;;28.20;68.10;;;;;;5037428;28;20049;-85
2022/07/04 12:25:26;;;;;;;0.32;0.32;;;28.40;67.40;;;;;;5052733;28;20051;-85
2022/07/04 12:28:02;;;;;;;0.00;0.00;;;28.60;67.40;;;;;;5052829;28;20041;-85
2022/07/04 12:30:34;;;;;;;0.10;0.10;;;29.10;68.90;;;;;;5052192;28;20068;-85
2022/07/04 12:33:02;;;;;;;0.08;0.08;;;29.70;67.10;;;;;;5035622;28;20041;-85
2022/07/04 12:35:41;;;;;;;0.20;0.20;;;29.70;65.70;;;;;;5033713;28;20091;-85
2022/07/04 12:38:09;;;;;;;0.00;0.00;;;29.60;65.30;;;;;;5050033;28;20044;-82
2022/07/04 12:40:35;;;;;;;0.20;0.20;;;29.40;65.80;;;;;;5035912;28;20045;-82
2022/07/04 12:43:02;;;;;;;0.10;0.10;;;29.50;64.70;;;;;;5018791;28;20037;-83
2022/07/04 12:45:42;;;;;;;0.03;0.03;;;29.40;65.10;;;;;;5051985;28;20053;-82
2022/07/04 12:48:16;;;;;;;0.10;0.10;;;29.50;65.80;;;;;;5052324;28;20040;-82
2022/07/04 12:50:41;;;;;;;0.57;0.45;;;29.80;66.10;;;;;;5035940;28;20032;-82
2022/07/04 12:53:07;;;;;;;0.10;0.10;;;29.70;65.80;;;;;;5050272;28;20098;-82
2022/07/04 12:55:33;;;;;;;0.00;0.00;;;29.60;65.00;;;;;;5052337;28;20475;-82
2022/07/04 12:57:58;;;;;;;0.10;0.10;;;29.30;65.70;;;;;;5052383;28;20052;-82
2022/07/04 13:00:24;;;;;;;0.10;0.10;;;29.20;66.70;;;;;;5052260;28;20093;-82
2022/07/04 13:02:50;;;;;;;0.10;0.10;;;29.10;66.80;;;;;;5035672;28;20407;-82
2022/07/04 13:05:16;;;;;;;0.05;0.05;;;28.60;67.20;;;;;;5051349;28;20045;-82
2022/07/04 13:07:43;;;;;;;0.15;0.15;;;28.00;67.00;;;;;;5052710;28;20065;-82
2022/07/04 13:10:09;;;;;;;0.10;0.10;;;27.80;69.10;;;;;;5035919;28;20049;-83